Time;durP1;ratioP1;P1;durP2;ratioP2;P2;SDS_P1;SDS_P2;PMS_P1;PMS_P2;Temp;Humidity;BMP_temperature;BMP_pressure;BME280_temperature;BME280_humidity;BME280_pressure;Samples;Min_cycle;Max_cycle;Signal;HPM_P1;HPM_P2
2023/10/23 00:01:56;;;;;;;2.73;1.00;;;;;6.60;93870.00;;;;7398380;19;20140;-76
2023/10/23 00:04:32;;;;;;;1.70;0.90;;;;;6.50;93873.00;;;;7397684;19;20151;-76
2023/10/23 00:07:02;;;;;;;2.57;0.80;;;;;6.50;93870.00;;;;7397043;19;20177;-80
2023/10/23 00:09:37;;;;;;;1.73;0.90;;;;;6.40;93869.00;;;;7398615;19;20700;-80
2023/10/23 00:12:07;;;;;;;5.10;1.07;;;;;6.40;93879.00;;;;7396568;19;20141;-77
2023/10/23 00:14:37;;;;;;;3.40;1.10;;;;;6.50;93877.00;;;;7394306;19;20168;-78
2023/10/23 00:17:11;;;;;;;4.53;1.17;;;;;6.30;93886.00;;;;7399060;19;20172;-77
2023/10/23 00:19:39;;;;;;;1.07;0.87;;;;;6.10;93890.00;;;;7395898;19;20136;-78
2023/10/23 00:22:07;;;;;;;5.77;1.50;;;;;6.00;93893.00;;;;7399179;19;20125;-75
2023/10/23 00:24:43;;;;;;;4.80;1.20;;;;;6.00;93894.00;;;;7397499;19;20136;-77
2023/10/23 00:27:10;;;;;;;2.73;0.90;;;;;6.20;93893.00;;;;7396517;19;20144;-75
2023/10/23 00:29:44;;;;;;;3.70;1.33;;;;;6.30;93892.00;;;;7398029;19;20220;-78
2023/10/23 00:32:19;;;;;;;3.90;0.97;;;;;6.50;93894.00;;;;7396975;19;20165;-77
2023/10/23 00:34:46;;;;;;;7.07;1.33;;;;;6.60;93891.00;;;;7396731;19;20241;-75
2023/10/23 00:37:14;;;;;;;2.77;1.10;;;;;6.50;93890.00;;;;7397912;19;20163;-75
2023/10/23 00:39:49;;;;;;;4.03;1.40;;;;;6.60;93895.00;;;;7395475;19;20144;-77
2023/10/23 00:42:18;;;;;;;1.90;0.97;;;;;6.70;93901.00;;;;7396752;19;20129;-77
2023/10/23 00:44:55;;;;;;;3.60;1.20;;;;;6.60;93891.00;;;;7398244;19;20133;-77
2023/10/23 00:47:30;;;;;;;5.20;1.37;;;;;6.60;93890.00;;;;7397120;19;20147;-76
2023/10/23 00:50:05;;;;;;;3.33;1.20;;;;;6.70;93897.00;;;;7397293;19;20141;-77
2023/10/23 00:52:33;;;;;;;3.97;1.23;;;;;6.70;93888.00;;;;7396313;19;20137;-78
2023/10/23 00:55:08;;;;;;;7.10;1.40;;;;;6.60;93893.00;;;;7396318;19;20152;-77
2023/10/23 00:57:38;;;;;;;5.00;1.00;;;;;6.60;93889.00;;;;7397420;19;20137;-77
2023/10/23 01:00:13;;;;;;;8.10;1.27;;;;;6.70;93895.00;;;;7396409;19;20125;-81
2023/10/23 01:02:42;;;;;;;5.00;1.17;;;;;6.80;93888.00;;;;7394849;19;20531;-79
2023/10/23 01:05:16;;;;;;;3.23;1.27;;;;;6.80;93885.00;;;;7397114;19;20153;-78
2023/10/23 01:07:50;;;;;;;9.33;1.20;;;;;6.70;93871.00;;;;7397815;19;20219;-78
2023/10/23 01:10:25;;;;;;;2.63;0.93;;;;;6.70;93879.00;;;;7395512;19;20156;-78
2023/10/23 01:12:56;;;;;;;4.17;1.27;;;;;6.50;93868.00;;;;7395883;19;20616;-78
2023/10/23 01:15:32;;;;;;;4.77;1.30;;;;;6.40;93869.00;;;;7395297;19;20137;-80
2023/10/23 01:18:07;;;;;;;7.63;1.47;;;;;6.40;93868.00;;;;7395454;19;20157;-78
2023/10/23 01:20:42;;;;;;;3.97;1.20;;;;;6.20;93872.00;;;;7394323;19;20208;-77
2023/10/23 01:23:16;;;;;;;8.60;1.13;;;;;6.20;93870.00;;;;7396853;19;20165;-77
2023/10/23 01:25:50;;;;;;;3.23;1.27;;;;;6.10;93880.00;;;;7396863;19;20145;-79
2023/10/23 01:28:18;;;;;;;4.47;0.97;;;;;6.00;93886.00;;;;7394230;19;20454;-76
2023/10/23 01:30:53;;;;;;;3.37;1.20;;;;;5.90;93876.00;;;;7392350;19;20120;-76
2023/10/23 01:33:29;;;;;;;3.90;1.17;;;;;6.00;93881.00;;;;7388060;19;20971;-77
2023/10/23 01:36:04;;;;;;;4.13;1.67;;;;;6.00;93880.00;;;;7393965;19;20216;-78
2023/10/23 01:38:38;;;;;;;3.47;1.07;;;;;6.00;93881.00;;;;7395378;19;20146;-76
2023/10/23 01:41:06;;;;;;;5.10;1.17;;;;;6.10;93879.00;;;;7393268;19;20608;-76
2023/10/23 01:43:41;;;;;;;2.60;0.90;;;;;6.10;93881.00;;;;7393423;19;20128;-79
2023/10/23 01:46:09;;;;;;;7.47;1.27;;;;;6.20;93877.00;;;;7395925;19;20486;-77
2023/10/23 01:48:43;;;;;;;7.87;1.03;;;;;6.10;93875.00;;;;7395013;19;20167;-77
2023/10/23 01:51:18;;;;;;;4.67;1.20;;;;;6.20;93871.00;;;;7393547;19;20934;-79
2023/10/23 01:53:52;;;;;;;7.43;1.87;;;;;6.20;93867.00;;;;7393619;19;20607;-77
2023/10/23 01:56:20;;;;;;;12.47;1.10;;;;;6.10;93870.00;;;;7395920;19;20273;-78
2023/10/23 01:58:54;;;;;;;5.20;1.23;;;;;6.20;93867.00;;;;7393962;19;20140;-76
2023/10/23 02:01:23;;;;;;;5.37;1.33;;;;;6.20;93861.00;;;;7393350;19;20600;-77
2023/10/23 02:03:58;;;;;;;3.80;1.40;;;;;6.30;93867.00;;;;7394627;19;20148;-79
2023/10/23 02:06:33;;;;;;;5.07;1.40;;;;;6.30;93865.00;;;;7393002;19;20560;-77
2023/10/23 02:09:08;;;;;;;4.53;1.20;;;;;6.30;93856.00;;;;7393321;19;20165;-77
2023/10/23 02:11:43;;;;;;;4.03;1.30;;;;;6.30;93861.00;;;;7395447;19;20133;-76
2023/10/23 02:14:27;;;;;;;6.67;1.37;;;;;6.30;93863.00;;;;7391662;19;20163;-78
2023/10/23 02:17:01;;;;;;;4.30;1.33;;;;;6.30;93870.00;;;;7394294;19;20149;-75
2023/10/23 02:19:35;;;;;;;4.83;1.27;;;;;6.30;93856.00;;;;7393219;19;20571;-78
2023/10/23 02:22:03;;;;;;;3.63;1.30;;;;;6.30;93866.00;;;;7395296;19;20532;-75
2023/10/23 02:24:37;;;;;;;3.27;1.17;;;;;6.30;93866.00;;;;7392351;19;20608;-78
2023/10/23 02:27:06;;;;;;;4.90;0.90;;;;;6.30;93869.00;;;;7394166;19;20147;-78
2023/10/23 02:29:40;;;;;;;3.03;1.20;;;;;6.40;93856.00;;;;7392754;19;20155;-77
2023/10/23 02:32:25;;;;;;;4.87;1.07;;;;;6.40;93854.00;;;;7392297;19;20573;-79
2023/10/23 02:35:00;;;;;;;2.50;0.83;;;;;6.50;93860.00;;;;7394499;19;20128;-77
2023/10/23 02:37:34;;;;;;;6.20;1.10;;;;;6.50;93852.00;;;;7394646;19;20144;-78
2023/10/23 02:40:05;;;;;;;5.67;1.20;;;;;6.40;93851.00;;;;7399856;19;20297;-78
2023/10/23 02:42:42;;;;;;;1.40;0.90;;;;;6.30;93857.00;;;;7401504;19;20608;-78
2023/10/23 02:45:10;;;;;;;2.23;0.87;;;;;6.40;93862.00;;;;7400559;19;20151;-78
2023/10/23 02:47:44;;;;;;;4.57;1.33;;;;;6.50;93854.00;;;;7399871;19;20490;-78
2023/10/23 02:50:21;;;;;;;7.90;1.40;;;;;6.40;93863.00;;;;7401079;19;20157;-76
2023/10/23 02:52:55;;;;;;;3.70;1.50;;;;;6.50;93863.00;;;;7402351;19;20277;-78
2023/10/23 02:55:26;;;;;;;5.67;1.40;;;;;6.50;93866.00;;;;7399977;19;20623;-78
2023/10/23 02:57:54;;;;;;;5.53;1.07;;;;;6.60;93867.00;;;;7401853;19;20991;-78
2023/10/23 03:00:29;;;;;;;3.13;1.27;;;;;6.60;93862.00;;;;7400653;19;20588;-75
2023/10/23 03:02:57;;;;;;;10.17;1.60;;;;;6.60;93854.00;;;;7400904;19;20633;-78
2023/10/23 03:05:33;;;;;;;6.10;1.60;;;;;6.60;93864.00;;;;7400270;19;20145;-76
2023/10/23 03:08:02;;;;;;;5.60;1.03;;;;;6.60;93856.00;;;;7400666;19;20137;-79
2023/10/23 03:10:38;;;;;;;5.90;1.53;;;;;6.70;93855.00;;;;7401045;19;20490;-78
2023/10/23 03:13:13;;;;;;;4.93;1.20;;;;;6.80;93855.00;;;;7400255;19;20137;-77
2023/10/23 03:15:47;;;;;;;4.13;1.17;;;;;6.80;93858.00;;;;7399511;19;20215;-78
2023/10/23 03:18:21;;;;;;;3.37;1.40;;;;;6.80;93853.00;;;;7400302;19;20129;-78
2023/10/23 03:20:49;;;;;;;9.00;1.40;;;;;6.80;93845.00;;;;7398015;19;20153;-77
2023/10/23 03:23:25;;;;;;;2.07;1.10;;;;;6.70;93852.00;;;;7399081;19;20156;-76
2023/10/23 03:26:01;;;;;;;6.07;1.00;;;;;6.60;93838.00;;;;7399728;19;20199;-77
2023/10/23 03:28:36;;;;;;;4.40;1.07;;;;;6.60;93849.00;;;;7399083;19;20149;-78
2023/10/23 03:31:10;;;;;;;3.47;2.30;;;;;6.60;93843.00;;;;7399009;19;20148;-77
2023/10/23 03:33:40;;;;;;;11.20;3.27;;;;;6.60;93841.00;;;;7399512;19;20652;-77
2023/10/23 03:36:14;;;;;;;3.63;1.03;;;;;6.60;93844.00;;;;7398184;19;20483;-76
2023/10/23 03:38:41;;;;;;;4.00;1.20;;;;;6.50;93854.00;;;;7400242;19;20476;-77
2023/10/23 03:41:16;;;;;;;5.63;1.40;;;;;6.60;93857.00;;;;7397424;19;20523;-77
2023/10/23 03:43:51;;;;;;;3.23;1.10;;;;;6.60;93853.00;;;;7399130;19;20133;-77
2023/10/23 03:46:27;;;;;;;5.67;1.33;;;;;6.70;93847.00;;;;7401009;19;20188;-76
2023/10/23 03:48:56;;;;;;;7.57;3.63;;;;;6.80;93843.00;;;;7399035;19;20239;-78
2023/10/23 03:51:30;;;;;;;13.07;4.17;;;;;6.70;93850.00;;;;7399009;19;20136;-79
2023/10/23 03:53:59;;;;;;;2.97;1.20;;;;;6.70;93849.00;;;;7398333;19;20616;-78
2023/10/23 03:56:26;;;;;;;3.50;1.40;;;;;6.60;93840.00;;;;7397036;19;20187;-78
2023/10/23 03:59:01;;;;;;;4.63;1.40;;;;;6.70;93831.00;;;;7399713;19;20141;-80
2023/10/23 04:01:29;;;;;;;5.73;1.60;;;;;6.80;93828.00;;;;7395736;19;20137;-78
2023/10/23 04:04:03;;;;;;;7.47;1.30;;;;;6.80;93833.00;;;;7398495;19;20140;-76
2023/10/23 04:06:41;;;;;;;5.63;1.00;;;;;6.80;93842.00;;;;7399791;19;20132;-79
2023/10/23 04:09:16;;;;;;;3.57;1.10;;;;;6.70;93831.00;;;;7398203;19;20589;-78
2023/10/23 04:11:50;;;;;;;9.27;4.40;;;;;6.70;93832.00;;;;7396431;19;20203;-78
2023/10/23 04:14:31;;;;;;;5.30;1.90;;;;;6.60;93836.00;;;;7395996;19;20189;-79
2023/10/23 04:16:59;;;;;;;3.20;1.07;;;;;6.60;93830.00;;;;7399226;19;20622;-77
2023/10/23 04:19:32;;;;;;;8.67;1.20;;;;;6.60;93836.00;;;;7398778;19;20137;-77
2023/10/23 04:22:01;;;;;;;2.73;1.30;;;;;6.70;93831.00;;;;7396652;19;20140;-76
2023/10/23 04:24:31;;;;;;;6.97;1.17;;;;;6.70;93831.00;;;;7398826;19;20495;-78
2023/10/23 04:27:07;;;;;;;3.63;1.03;;;;;6.70;93828.00;;;;7396643;19;20744;-78
2023/10/23 04:29:35;;;;;;;5.10;1.33;;;;;6.70;93816.00;;;;7396340;19;20141;-77
2023/10/23 04:32:09;;;;;;;6.03;1.33;;;;;6.70;93819.00;;;;7396041;19;20603;-78
2023/10/23 04:34:38;;;;;;;3.03;1.00;;;;;6.60;93814.00;;;;7395831;19;20145;-77
2023/10/23 04:37:12;;;;;;;3.80;1.13;;;;;6.50;93810.00;;;;7397350;19;20144;-77
2023/10/23 04:39:45;;;;;;;3.23;1.20;;;;;6.50;93821.00;;;;7397514;19;20161;-78
2023/10/23 04:42:14;;;;;;;3.63;1.30;;;;;6.50;93812.00;;;;7394055;19;20540;-75
2023/10/23 04:44:49;;;;;;;5.07;1.13;;;;;6.40;93810.00;;;;7398157;19;20659;-77
2023/10/23 04:47:23;;;;;;;2.23;0.73;;;;;6.30;93808.00;;;;7396335;19;20173;-76
2023/10/23 04:49:58;;;;;;;4.17;1.10;;;;;6.30;93807.00;;;;7394847;19;20223;-78
2023/10/23 04:52:36;;;;;;;4.00;0.87;;;;;6.40;93800.00;;;;7397890;19;20479;-77
2023/10/23 04:55:04;;;;;;;4.20;1.53;;;;;6.20;93801.00;;;;7394571;19;20703;-76
2023/10/23 04:57:39;;;;;;;2.30;1.10;;;;;6.20;93799.00;;;;7394722;19;20143;-78
2023/10/23 05:00:14;;;;;;;1.87;0.90;;;;;6.20;93798.00;;;;7394983;19;20596;-78
2023/10/23 05:03:03;;;;;;;2.40;1.00;;;;;6.10;93788.00;;;;7395929;19;20137;-78
2023/10/23 05:05:44;;;;;;;2.43;1.10;;;;;6.20;93786.00;;;;7394383;19;20140;-79
2023/10/23 05:08:12;;;;;;;8.00;1.37;;;;;6.30;93791.00;;;;7395523;19;20158;-76
2023/10/23 05:10:46;;;;;;;4.53;1.20;;;;;6.20;93793.00;;;;7394759;19;20160;-77
2023/10/23 05:13:27;;;;;;;9.77;1.07;;;;;6.20;93789.00;;;;7394756;19;20148;-78
2023/10/23 05:16:08;;;;;;;5.53;1.20;;;;;6.10;93784.00;;;;7394386;19;20148;-78
2023/10/23 05:18:44;;;;;;;1.77;1.23;;;;;6.00;93783.00;;;;7397547;19;20145;-77
2023/10/23 05:21:20;;;;;;;6.13;1.30;;;;;6.00;93788.00;;;;7395630;19;20149;-79
2023/10/23 05:23:48;;;;;;;5.40;1.33;;;;;5.90;93785.00;;;;7396142;19;20144;-78
2023/10/23 05:26:16;;;;;;;3.17;1.40;;;;;5.90;93771.00;;;;7372917;19;20149;-77
2023/10/23 05:28:53;;;;;;;3.17;1.40;;;;;5.90;93781.00;;;;7381482;19;20261;-78
2023/10/23 05:31:21;;;;;;;4.00;1.40;;;;;5.90;93791.00;;;;7381387;19;20145;-75
2023/10/23 05:33:56;;;;;;;5.53;1.43;;;;;5.90;93785.00;;;;7383053;19;20615;-77
2023/10/23 05:36:34;;;;;;;3.50;1.23;;;;;6.00;93799.00;;;;7383977;19;20136;-77
2023/10/23 05:39:08;;;;;;;2.00;0.93;;;;;6.10;93810.00;;;;7382374;19;20148;-77
2023/10/23 05:41:42;;;;;;;1.93;0.77;;;;;6.00;93816.00;;;;7381694;19;20163;-77
2023/10/23 05:44:10;;;;;;;3.23;1.20;;;;;6.20;93821.00;;;;7385458;19;20640;-76
2023/10/23 05:46:45;;;;;;;3.33;1.23;;;;;6.20;93822.00;;;;7385811;19;20137;-75
2023/10/23 05:49:15;;;;;;;3.40;0.97;;;;;6.20;93825.00;;;;7388216;19;20136;-75
2023/10/23 05:51:51;;;;;;;1.93;1.23;;;;;6.10;93816.00;;;;7386150;19;20212;-75
2023/10/23 05:54:19;;;;;;;3.50;1.20;;;;;6.10;93814.00;;;;7385929;19;20141;-74
2023/10/23 05:56:47;;;;;;;5.43;1.10;;;;;6.10;93807.00;;;;7382478;19;20219;-77
2023/10/23 05:59:24;;;;;;;3.20;1.03;;;;;6.20;93806.00;;;;7385129;19;20749;-76
2023/10/23 06:01:53;;;;;;;1.60;0.90;;;;;6.20;93810.00;;;;7383350;19;20169;-76
2023/10/23 06:04:30;;;;;;;3.33;1.00;;;;;6.20;93817.00;;;;7382694;19;20520;-76
2023/10/23 06:07:00;;;;;;;4.13;1.40;;;;;6.30;93823.00;;;;7379670;19;20153;-76
2023/10/23 06:09:34;;;;;;;4.33;1.37;;;;;6.40;93817.00;;;;7382641;19;20162;-75
2023/10/23 06:12:29;;;;;;;2.63;1.17;;;;;6.50;93813.00;;;;7382687;19;20601;-76
2023/10/23 06:15:11;;;;;;;4.13;1.17;;;;;6.60;93803.00;;;;7387020;19;20659;-77
2023/10/23 06:17:39;;;;;;;1.73;1.13;;;;;6.70;93807.00;;;;7388881;19;20613;-77
2023/10/23 06:20:14;;;;;;;4.07;1.17;;;;;6.80;93800.00;;;;7389026;19;20203;-75
2023/10/23 06:22:42;;;;;;;4.67;1.37;;;;;6.90;93804.00;;;;7387445;19;20171;-75
2023/10/23 06:25:16;;;;;;;6.47;1.47;;;;;7.00;93801.00;;;;7387683;19;20137;-76
2023/10/23 06:27:44;;;;;;;3.33;1.30;;;;;7.10;93799.00;;;;7385860;19;20510;-76
2023/10/23 06:30:21;;;;;;;4.17;1.30;;;;;7.40;93803.00;;;;7387989;19;20136;-77
2023/10/23 06:32:50;;;;;;;4.37;1.43;;;;;7.60;93797.00;;;;7388303;19;20129;-74
2023/10/23 06:35:24;;;;;;;4.97;1.57;;;;;7.70;93803.00;;;;7388865;19;20545;-75
2023/10/23 06:37:52;;;;;;;3.10;1.23;;;;;7.80;93805.00;;;;7387190;19;20153;-75
2023/10/23 06:40:27;;;;;;;7.07;1.90;;;;;7.90;93802.00;;;;7387253;19;20161;-77
2023/10/23 06:43:03;;;;;;;5.27;1.13;;;;;8.00;93792.00;;;;7385762;19;20155;-76
2023/10/23 06:45:31;;;;;;;3.23;1.60;;;;;8.10;93795.00;;;;7387725;19;20136;-76
2023/10/23 06:48:26;;;;;;;6.00;2.17;;;;;8.30;93800.00;;;;7385073;19;20629;-78
2023/10/23 06:51:07;;;;;;;5.17;2.20;;;;;8.20;93799.00;;;;7387535;19;20131;-77
2023/10/23 06:53:35;;;;;;;5.10;2.57;;;;;8.20;93799.00;;;;7387652;19;20136;-75
2023/10/23 06:56:11;;;;;;;2.63;1.50;;;;;8.30;93729.00;;;;7386405;19;20156;-78
2023/10/23 06:58:46;;;;;;;5.87;2.80;;;;;8.30;93793.00;;;;7386216;19;20128;-77
2023/10/23 07:01:21;;;;;;;19.17;9.20;;;;;8.30;93790.00;;;;7387565;19;20160;-74
2023/10/23 07:04:05;;;;;;;61.40;27.97;;;;;8.40;93789.00;;;;7387291;19;20229;-78
2023/10/23 07:06:40;;;;;;;19.83;10.83;;;;;8.50;93790.00;;;;7386775;19;20136;-75
2023/10/23 07:09:16;;;;;;;9.23;5.47;;;;;8.50;93792.00;;;;7388121;19;20158;-74
2023/10/23 07:11:51;;;;;;;5.67;2.10;;;;;8.70;93791.00;;;;7387799;19;20592;-78
2023/10/23 07:14:33;;;;;;;3.07;1.60;;;;;8.80;93788.00;;;;7385570;19;20167;-75
2023/10/23 07:17:03;;;;;;;3.07;1.70;;;;;8.80;93794.00;;;;7386399;19;20588;-77
2023/10/23 07:19:37;;;;;;;2.30;1.50;;;;;8.90;93796.00;;;;7386667;19;20631;-76
2023/10/23 07:22:21;;;;;;;3.77;1.43;;;;;9.00;93781.00;;;;7385749;19;20125;-77
2023/10/23 07:24:49;;;;;;;2.33;1.20;;;;;9.20;93780.00;;;;7384072;19;20145;-75
2023/10/23 07:27:24;;;;;;;4.40;1.50;;;;;9.20;93771.00;;;;7387368;19;20780;-76
2023/10/23 07:29:58;;;;;;;5.57;1.10;;;;;9.30;93776.00;;;;7386828;19;20142;-76
2023/10/23 07:32:36;;;;;;;2.42;1.30;;;;;9.30;93776.00;;;;7384806;19;20168;-76
2023/10/23 07:35:13;;;;;;;4.40;1.23;;;;;9.40;93774.00;;;;7386695;19;20580;-76
2023/10/23 07:37:48;;;;;;;5.27;1.50;;;;;9.50;93772.00;;;;7385328;19;20224;-77
2023/10/23 07:40:23;;;;;;;2.90;1.17;;;;;9.60;93774.00;;;;7386103;19;20238;-76
2023/10/23 07:42:59;;;;;;;5.55;1.83;;;;;9.70;93759.00;;;;7386387;19;20520;-75
2023/10/23 07:45:27;;;;;;;6.47;1.33;;;;;9.70;93759.00;;;;7384258;19;20132;-76
2023/10/23 07:48:02;;;;;;;3.00;1.30;;;;;9.70;93754.00;;;;7386796;19;20199;-76
2023/10/23 07:50:36;;;;;;;3.25;1.10;;;;;9.60;93756.00;;;;7385092;19;20152;-76
2023/10/23 07:53:11;;;;;;;2.97;1.13;;;;;9.80;93745.00;;;;7387493;19;20138;-76
2023/10/23 07:55:46;;;;;;;1.88;0.90;;;;;9.80;93746.00;;;;7387840;19;20132;-75
2023/10/23 07:58:20;;;;;;;4.82;1.20;;;;;9.80;93739.00;;;;7385025;19;20129;-74
2023/10/23 08:01:00;;;;;;;2.85;1.13;;;;;9.90;93746.00;;;;7385604;19;20176;-72
2023/10/23 08:03:35;;;;;;;3.83;1.23;;;;;10.10;93750.00;;;;7385174;19;20212;-74
2023/10/23 08:06:11;;;;;;;3.40;1.00;;;;;10.10;93740.00;;;;7387183;19;20132;-76
2023/10/23 08:08:40;;;;;;;1.50;0.77;;;;;10.20;93737.00;;;;7387729;19;20630;-76
2023/10/23 08:11:15;;;;;;;1.90;1.00;;;;;10.20;93736.00;;;;7386564;19;20129;-75
2023/10/23 08:13:43;;;;;;;1.83;1.13;;;;;10.30;93717.00;;;;7386995;19;20202;-74
2023/10/23 08:16:24;;;;;;;3.20;1.27;;;;;10.50;93742.00;;;;7389026;19;20151;-76
2023/10/23 08:18:52;;;;;;;3.45;1.00;;;;;10.70;93747.00;;;;7383658;19;20520;-75
2023/10/23 08:21:28;;;;;;;3.70;1.38;;;;;10.80;93745.00;;;;7385977;19;20149;-75
2023/10/23 08:23:57;;;;;;;1.63;0.90;;;;;10.90;93744.00;;;;7385155;19;20158;-75
2023/10/23 08:26:25;;;;;;;3.88;1.00;;;;;11.20;93751.00;;;;7386904;19;20121;-74
2023/10/23 08:28:59;;;;;;;3.50;1.20;;;;;11.10;93756.00;;;;7386880;19;20597;-74
2023/10/23 08:31:30;;;;;;;2.53;1.30;;;;;11.20;93761.00;;;;7387053;19;20226;-76
2023/10/23 08:34:08;;;;;;;3.35;1.27;;;;;11.20;93767.00;;;;7385979;19;20149;-76
2023/10/23 08:36:37;;;;;;;3.45;1.20;;;;;11.30;93765.00;;;;7381931;19;20154;-74
2023/10/23 08:39:11;;;;;;;4.45;1.33;;;;;11.30;93762.00;;;;7385204;19;20659;-77
2023/10/23 08:41:39;;;;;;;2.47;1.08;;;;;11.10;93761.00;;;;7385538;19;20152;-75
2023/10/23 08:44:20;;;;;;;6.68;1.52;;;;;11.00;93766.00;;;;7384318;19;20764;-76
2023/10/23 08:46:55;;;;;;;5.50;1.42;;;;;11.00;93757.00;;;;7383189;19;20178;-78
2023/10/23 08:49:30;;;;;;;1.60;1.27;;;;;11.00;93764.00;;;;7387723;19;20132;-76
2023/10/23 08:51:59;;;;;;;2.63;1.30;;;;;11.00;93765.00;;;;7384191;19;20125;-77
2023/10/23 08:54:34;;;;;;;2.63;1.48;;;;;11.00;93763.00;;;;7384261;19;20156;-75
2023/10/23 08:57:03;;;;;;;3.90;1.25;;;;;10.80;93761.00;;;;7386536;19;20517;-79
2023/10/23 08:59:41;;;;;;;3.85;1.20;;;;;11.00;93765.00;;;;7383995;19;20687;-74
2023/10/23 09:02:10;;;;;;;2.53;1.05;;;;;10.90;93757.00;;;;7383926;19;20157;-76
2023/10/23 09:04:45;;;;;;;3.25;1.20;;;;;11.00;93757.00;;;;7385225;19;20581;-78
2023/10/23 09:07:13;;;;;;;2.80;1.30;;;;;11.00;93752.00;;;;7385371;19;20129;-76
2023/10/23 09:09:48;;;;;;;3.50;1.20;;;;;11.10;93752.00;;;;7385392;19;20640;-75
2023/10/23 09:12:36;;;;;;;4.68;1.27;;;;;11.30;93749.00;;;;7384629;19;20173;-76
2023/10/23 09:15:21;;;;;;;3.17;1.08;;;;;11.40;93749.00;;;;7383199;19;20152;-75
2023/10/23 09:17:49;;;;;;;3.13;1.20;;;;;11.60;93747.00;;;;7383714;19;20132;-75
2023/10/23 09:20:26;;;;;;;2.15;1.40;;;;;11.50;93748.00;;;;7384128;19;20124;-77
2023/10/23 09:23:01;;;;;;;1.98;1.10;;;;;11.30;93755.00;;;;7383229;19;20188;-76
2023/10/23 09:25:54;;;;;;;2.13;1.30;;;;;11.40;93759.00;;;;7386194;19;20223;-80
2023/10/23 09:28:35;;;;;;;3.75;1.40;;;;;11.40;93763.00;;;;7381909;19;20152;-74
2023/10/23 09:31:10;;;;;;;2.65;1.67;;;;;11.20;93762.00;;;;7381466;19;20140;-76
2023/10/23 09:33:46;;;;;;;3.35;1.48;;;;;11.20;93764.00;;;;7383124;19;20152;-78
2023/10/23 09:36:25;;;;;;;4.30;1.50;;;;;11.20;93768.00;;;;7384635;19;20125;-77
2023/10/23 09:38:58;;;;;;;2.58;1.52;;;;;11.10;93768.00;;;;7383831;19;20173;-77
2023/10/23 09:41:32;;;;;;;2.42;1.10;;;;;11.30;93774.00;;;;7381812;19;20668;-78
2023/10/23 09:44:03;;;;;;;4.93;1.42;;;;;11.20;93758.00;;;;7385037;19;20129;-77
2023/10/23 09:46:33;;;;;;;2.20;1.20;;;;;11.30;93756.00;;;;7384658;19;20125;-77
2023/10/23 09:49:09;;;;;;;4.13;1.23;;;;;11.30;93761.00;;;;7384040;19;20153;-77
2023/10/23 09:51:48;;;;;;;2.30;1.25;;;;;11.20;93753.00;;;;7381801;19;20140;-76
2023/10/23 09:54:31;;;;;;;3.03;1.20;;;;;11.20;93761.00;;;;7382161;19;20508;-77
2023/10/23 09:57:07;;;;;;;3.60;1.48;;;;;11.30;93755.00;;;;7383229;19;20600;-78
2023/10/23 09:59:52;;;;;;;2.63;1.40;;;;;11.30;93753.00;;;;7381169;19;20487;-79
2023/10/23 10:02:33;;;;;;;2.67;1.30;;;;;11.30;93751.00;;;;7381719;19;20656;-79
2023/10/23 10:05:12;;;;;;;3.63;1.50;;;;;11.50;93754.00;;;;7383701;19;20162;-77
2023/10/23 10:08:06;;;;;;;2.70;1.05;;;;;11.50;93753.00;;;;7383796;19;20460;-76
2023/10/23 10:10:36;;;;;;;4.80;1.30;;;;;11.70;93755.00;;;;7381348;19;20140;-75
2023/10/23 10:13:11;;;;;;;2.08;1.33;;;;;11.70;93754.00;;;;7383627;19;20162;-79
2023/10/23 10:15:47;;;;;;;2.67;1.40;;;;;11.70;93752.00;;;;7380630;19;20176;-77
2023/10/23 10:18:22;;;;;;;3.42;1.50;;;;;11.60;93747.00;;;;7382673;19;20520;-75
2023/10/23 10:21:05;;;;;;;2.42;1.20;;;;;11.60;93738.00;;;;7380185;19;20490;-79
2023/10/23 10:23:40;;;;;;;2.08;1.23;;;;;11.60;93732.00;;;;7380767;19;20501;-77
2023/10/23 10:26:16;;;;;;;2.55;1.27;;;;;11.70;93742.00;;;;7382605;19;20164;-79
2023/10/23 10:28:54;;;;;;;3.85;1.38;;;;;11.80;93735.00;;;;7375136;19;20187;-76
2023/10/23 10:31:49;;;;;;;3.22;1.50;;;;;11.80;93735.00;;;;7380394;19;20601;-75
2023/10/23 10:34:24;;;;;;;3.03;1.30;;;;;11.70;93729.00;;;;7381956;19;20162;-78
2023/10/23 10:37:06;;;;;;;1.60;1.30;;;;;11.60;93725.00;;;;7382401;19;20480;-77
2023/10/23 10:39:52;;;;;;;2.33;1.30;;;;;11.80;93720.00;;;;7377009;19;20129;-77
2023/10/23 10:42:29;;;;;;;2.33;1.20;;;;;12.00;93713.00;;;;7379823;19;20129;-77
2023/10/23 10:44:59;;;;;;;2.42;1.40;;;;;12.10;93700.00;;;;7382626;19;20155;-78
2023/10/23 10:47:38;;;;;;;1.55;1.33;;;;;12.20;93698.00;;;;7380640;19;20211;-78
2023/10/23 10:50:29;;;;;;;3.40;1.55;;;;;12.10;93691.00;;;;7382116;19;20220;-77
2023/10/23 10:53:08;;;;;;;3.40;1.58;;;;;12.20;93687.00;;;;7378487;19;20593;-79
2023/10/23 10:55:45;;;;;;;4.63;1.15;;;;;12.30;93690.00;;;;7379154;19;20148;-76
2023/10/23 10:58:21;;;;;;;2.30;1.60;;;;;12.40;93677.00;;;;7382015;19;20136;-77
2023/10/23 11:01:09;;;;;;;4.63;1.48;;;;;12.40;93675.00;;;;7389326;19;20160;-77
2023/10/23 11:03:44;;;;;;;4.00;1.60;;;;;12.40;93664.00;;;;7387063;19;20192;-79
2023/10/23 11:06:12;;;;;;;2.90;1.30;;;;;12.60;93670.00;;;;7386475;19;20177;-76
2023/10/23 11:08:50;;;;;;;3.05;1.50;;;;;12.60;93655.00;;;;7387449;19;20152;-78
2023/10/23 11:11:18;;;;;;;5.82;1.85;;;;;12.70;93656.00;;;;7388172;19;20132;-77
2023/10/23 11:14:07;;;;;;;4.28;1.45;;;;;12.80;93638.00;;;;7387561;19;20617;-77
2023/10/23 11:16:42;;;;;;;3.03;1.58;;;;;13.00;93635.00;;;;7387583;19;20128;-75
2023/10/23 11:19:11;;;;;;;4.10;1.40;;;;;13.20;93624.00;;;;7387533;19;20133;-75
2023/10/23 11:21:45;;;;;;;3.90;1.30;;;;;13.30;93614.00;;;;7387096;19;20512;-79
2023/10/23 11:24:23;;;;;;;4.68;1.60;;;;;13.10;93611.00;;;;7385857;19;20129;-76
2023/10/23 11:26:51;;;;;;;1.75;1.40;;;;;13.10;93611.00;;;;7387707;19;20133;-77
2023/10/23 11:29:26;;;;;;;3.13;1.40;;;;;12.70;93610.00;;;;7386196;19;20533;-77
2023/10/23 11:31:54;;;;;;;3.35;1.25;;;;;12.60;93607.00;;;;7385968;19;20133;-76
2023/10/23 11:34:22;;;;;;;1.45;1.10;;;;;12.50;93601.00;;;;7387174;19;20145;-75
2023/10/23 11:37:00;;;;;;;1.77;1.27;;;;;12.30;93617.00;;;;7388189;19;20568;-78
2023/10/23 11:39:36;;;;;;;3.47;1.67;;;;;11.90;93609.00;;;;7387062;19;20153;-77
2023/10/23 11:42:11;;;;;;;2.60;1.15;;;;;11.80;93621.00;;;;7388308;19;20487;-76
2023/10/23 11:44:42;;;;;;;2.88;1.38;;;;;11.50;93624.00;;;;7386175;19;20156;-77
2023/10/23 11:47:17;;;;;;;4.05;1.70;;;;;11.50;93620.00;;;;7387303;19;20132;-77
2023/10/23 11:49:49;;;;;;;3.75;1.70;;;;;11.40;93625.00;;;;7385556;19;20239;-75
2023/10/23 11:52:24;;;;;;;2.45;1.80;;;;;11.30;93623.00;;;;7386376;19;20144;-77
2023/10/23 11:55:00;;;;;;;4.03;1.77;;;;;11.20;93622.00;;;;7386570;19;20133;-76
2023/10/23 11:57:34;;;;;;;1.90;1.48;;;;;11.20;93623.00;;;;7385640;19;20617;-78
2023/10/23 12:00:07;;;;;;;4.53;1.70;;;;;10.90;93629.00;;;;7386907;19;20149;-77
2023/10/23 12:02:43;;;;;;;3.05;1.40;;;;;10.70;93622.00;;;;7384853;19;20188;-78
2023/10/23 12:05:22;;;;;;;2.70;1.30;;;;;10.60;93623.00;;;;7386094;19;20592;-76
2023/10/23 12:07:58;;;;;;;1.63;1.42;;;;;10.70;93629.00;;;;7385792;19;20143;-76
2023/10/23 12:10:37;;;;;;;4.88;1.60;;;;;10.80;93633.00;;;;7381787;19;20148;-76
2023/10/23 12:13:06;;;;;;;5.53;1.40;;;;;10.80;93626.00;;;;7385756;19;20494;-78
2023/10/23 12:15:47;;;;;;;5.18;1.70;;;;;10.80;93622.00;;;;7386201;19;20620;-75
2023/10/23 12:18:17;;;;;;;1.85;1.42;;;;;10.70;93617.00;;;;7386638;19;20132;-76
2023/10/23 12:20:51;;;;;;;3.58;1.40;;;;;10.80;93620.00;;;;7386228;19;20129;-75
2023/10/23 12:23:19;;;;;;;2.08;1.17;;;;;10.60;93616.00;;;;7385098;19;20493;-75
2023/10/23 12:25:54;;;;;;;7.57;1.65;;;;;10.70;93617.00;;;;7384570;19;20140;-76
2023/10/23 12:28:22;;;;;;;1.83;1.63;;;;;10.70;93603.00;;;;7388024;19;20714;-77
2023/10/23 12:30:58;;;;;;;4.78;1.88;;;;;10.70;93593.00;;;;7385912;19;20473;-77
2023/10/23 12:33:51;;;;;;;3.67;1.70;;;;;10.80;93579.00;;;;7385040;19;20152;-76
2023/10/23 12:36:20;;;;;;;2.20;1.95;;;;;10.90;93576.00;;;;7384122;19;20174;-76
2023/10/23 12:38:54;;;;;;;3.13;1.70;;;;;11.00;93564.00;;;;7385476;19;20133;-77
2023/10/23 12:41:30;;;;;;;2.60;1.60;;;;;11.10;93559.00;;;;7386231;19;20148;-76
2023/10/23 12:44:04;;;;;;;4.10;1.60;;;;;11.40;93544.00;;;;7383728;19;20167;-76
2023/10/23 12:46:32;;;;;;;1.98;1.58;;;;;11.60;93534.00;;;;7385103;19;20129;-76
2023/10/23 12:49:07;;;;;;;3.17;1.90;;;;;11.80;93523.00;;;;7386425;19;20215;-76
2023/10/23 12:51:36;;;;;;;10.20;8.75;;;;;11.80;93520.00;;;;7386111;19;20125;-79
2023/10/23 12:54:10;;;;;;;4.20;3.80;;;;;11.80;93518.00;;;;7383880;19;20609;-76
2023/10/23 12:56:45;;;;;;;6.32;4.20;;;;;11.80;93531.00;;;;7382993;19;20140;-77
2023/10/23 12:59:19;;;;;;;3.22;1.83;;;;;11.70;93523.00;;;;7384723;19;20132;-76